createdAt,value
2019-05-11T00:01:49.659Z,99869.25
2019-05-11T00:04:18.278Z,99873.08
2019-05-11T00:06:46.930Z,99874.86
2019-05-11T00:09:15.546Z,99877.88
2019-05-11T00:11:44.249Z,99879.50
2019-05-11T00:14:12.882Z,99889.72
2019-05-11T00:16:41.477Z,99892.94
2019-05-11T00:19:10.105Z,99887.13
2019-05-11T00:21:38.698Z,99888.53
2019-05-11T00:24:07.314Z,99884.72
2019-05-11T00:26:35.920Z,99878.02
2019-05-11T00:29:04.600Z,99879.20
2019-05-11T00:31:33.210Z,99882.55
2019-05-11T00:34:01.832Z,99880.45
2019-05-11T00:36:30.426Z,99887.87
2019-05-11T00:38:59.152Z,99884.94
2019-05-11T00:41:27.763Z,99870.41
2019-05-11T00:43:56.413Z,99863.55
2019-05-11T00:46:25.017Z,99861.09
2019-05-11T00:48:53.645Z,99859.97
2019-05-11T00:51:22.247Z,99854.15
2019-05-11T00:53:50.865Z,99840.42
2019-05-11T00:56:19.664Z,99839.77
2019-05-11T00:58:50.908Z,99831.92
2019-05-11T01:01:18.582Z,99823.92
2019-05-11T01:03:47.210Z,99818.55
2019-05-11T01:06:15.823Z,99814.89
2019-05-11T01:08:44.451Z,99811.02
2019-05-11T01:11:13.053Z,99801.83
2019-05-11T01:13:41.692Z,99798.98
2019-05-11T01:16:10.297Z,99807.45
2019-05-11T01:18:38.928Z,99809.91
2019-05-11T01:21:07.606Z,99809.84
2019-05-11T01:23:36.230Z,99815.12
2019-05-11T01:26:04.910Z,99814.52
2019-05-11T01:28:33.518Z,99804.03
2019-05-11T01:31:02.139Z,99794.78
2019-05-11T01:33:30.740Z,99787.34
2019-05-11T01:35:59.353Z,99776.34
2019-05-11T01:38:27.942Z,99773.48
2019-05-11T01:40:59.087Z,99773.99
2019-05-11T01:43:26.893Z,99774.39
2019-05-11T01:45:55.568Z,99778.02
2019-05-11T01:48:24.170Z,99774.59
2019-05-11T01:50:52.787Z,99773.53
2019-05-11T01:53:21.408Z,99771.13
2019-05-11T01:55:50.042Z,99781.94
2019-05-11T01:58:18.643Z,99785.59
2019-05-11T02:00:47.264Z,99788.18
2019-05-11T02:03:15.886Z,99783.78
2019-05-11T02:05:44.501Z,99777.59
2019-05-11T02:08:13.132Z,99782.22
2019-05-11T02:10:41.807Z,99777.05
2019-05-11T02:13:10.465Z,99777.88
2019-05-11T02:15:39.101Z,99770.81
2019-05-11T02:18:07.706Z,99760.61
2019-05-11T02:20:36.376Z,99764.66
2019-05-11T02:23:05.052Z,99764.20
2019-05-11T02:25:33.668Z,99774.00
2019-05-11T02:28:02.320Z,99768.36
2019-05-11T02:30:30.984Z,99757.04
2019-05-11T02:32:59.596Z,99754.50
2019-05-11T02:35:28.216Z,99755.15
2019-05-11T02:37:56.883Z,99748.81
2019-05-11T02:40:25.689Z,99737.04
2019-05-11T02:42:54.343Z,99728.63
2019-05-11T02:45:38.044Z,99728.59
2019-05-11T02:48:06.749Z,99732.81
2019-05-11T02:50:36.773Z,99733.28
2019-05-11T02:53:05.489Z,99725.70
2019-05-11T02:55:35.221Z,99713.90
2019-05-11T02:58:04.635Z,99706.62
2019-05-11T03:00:41.597Z,99700.81
2019-05-11T03:03:10.422Z,99695.78
2019-05-11T03:05:39.105Z,99689.73
2019-05-11T03:08:07.835Z,99686.41
2019-05-11T03:10:36.453Z,99673.72
2019-05-11T03:13:05.160Z,99671.22
2019-05-11T03:15:33.859Z,99680.81
2019-05-11T03:18:02.482Z,99689.58
2019-05-11T03:20:31.170Z,99683.30
2019-05-11T03:22:59.932Z,99679.00
2019-05-11T03:25:28.492Z,99672.60
2019-05-11T03:27:57.133Z,99657.19
2019-05-11T03:30:25.795Z,99639.88
2019-05-11T03:32:54.397Z,99634.80
2019-05-11T03:35:23.056Z,99636.73
2019-05-11T03:37:51.642Z,99639.64
2019-05-11T03:40:20.337Z,99646.61
2019-05-11T03:42:48.969Z,99650.59
2019-05-11T03:45:17.670Z,99642.34
2019-05-11T03:47:48.688Z,99638.08
2019-05-11T03:50:17.488Z,99637.25
2019-05-11T03:52:46.191Z,99640.56
2019-05-11T03:55:14.884Z,99641.14
2019-05-11T03:57:43.524Z,99638.85
2019-05-11T04:00:12.772Z,99646.17
2019-05-11T04:02:41.453Z,99647.92
2019-05-11T04:05:10.312Z,99640.64
2019-05-11T04:07:38.931Z,99629.94
2019-05-11T04:10:08.111Z,99605.86
2019-05-11T04:12:36.826Z,99596.16
2019-05-11T04:15:05.744Z,99597.91
2019-05-11T04:17:34.373Z,99594.28
2019-05-11T04:20:03.063Z,99593.99
2019-05-11T04:22:31.711Z,99591.61
2019-05-11T04:25:00.327Z,99593.99
2019-05-11T04:27:28.996Z,99595.89
2019-05-11T04:29:57.623Z,99589.53
2019-05-11T04:32:26.510Z,99598.97
2019-05-11T04:34:55.160Z,99596.45
2019-05-11T04:37:23.789Z,99596.91
2019-05-11T04:39:52.479Z,99605.16
2019-05-11T04:42:21.185Z,99596.77
2019-05-11T04:44:52.265Z,99595.58
2019-05-11T04:47:20.089Z,99589.41
2019-05-11T04:49:48.732Z,99590.60
2019-05-11T04:52:17.333Z,99587.55
2019-05-11T04:54:45.946Z,99587.78
2019-05-11T04:57:14.561Z,99593.03
2019-05-11T04:59:43.179Z,99592.39
2019-05-11T05:02:12.039Z,99597.97
2019-05-11T05:04:40.676Z,99598.57
2019-05-11T05:07:10.691Z,99592.52
2019-05-11T05:09:42.930Z,99585.44
2019-05-11T05:12:14.038Z,99582.02
2019-05-11T05:14:40.304Z,99573.69
2019-05-11T05:17:08.960Z,99568.41
2019-05-11T05:19:37.717Z,99572.23
2019-05-11T05:22:06.413Z,99579.62
2019-05-11T05:24:35.063Z,99583.59
2019-05-11T05:27:03.676Z,99591.39
2019-05-11T05:29:32.295Z,99591.34
2019-05-11T05:32:00.913Z,99581.47
2019-05-11T05:34:29.541Z,99575.16
2019-05-11T05:36:58.278Z,99578.14
2019-05-11T05:39:26.933Z,99573.35
2019-05-11T05:41:57.479Z,99566.95
2019-05-11T05:44:27.832Z,99564.27
2019-05-11T05:46:56.603Z,99557.58
2019-05-11T05:49:25.224Z,99563.94
2019-05-11T05:51:57.819Z,99573.39
2019-05-11T05:54:24.210Z,99580.45
2019-05-11T05:56:52.828Z,99575.25
2019-05-11T05:59:21.430Z,99575.80
2019-05-11T06:01:50.048Z,99569.20
2019-05-11T06:04:18.679Z,99557.53
2019-05-11T06:06:47.300Z,99567.41
2019-05-11T06:09:15.900Z,99566.20
2019-05-11T06:11:44.515Z,99574.19
2019-05-11T06:14:13.210Z,99574.50
2019-05-11T06:16:41.834Z,99569.30
2019-05-11T06:19:10.439Z,99573.53
2019-05-11T06:21:39.146Z,99577.69
2019-05-11T06:24:08.634Z,99575.80
2019-05-11T06:26:37.833Z,99571.51
2019-05-11T06:29:06.473Z,99567.72
2019-05-11T06:31:35.106Z,99561.35
2019-05-11T06:34:03.760Z,99566.80
2019-05-11T06:36:32.471Z,99563.52
2019-05-11T06:39:01.155Z,99560.53
2019-05-11T06:41:29.855Z,99564.40
2019-05-11T06:44:01.969Z,99568.78
2019-05-11T06:46:28.880Z,99564.86
2019-05-11T06:48:57.488Z,99564.55
2019-05-11T06:51:26.178Z,99559.73
2019-05-11T06:53:54.775Z,99563.83
2019-05-11T06:56:23.408Z,99557.14
2019-05-11T06:58:52.010Z,99556.83
2019-05-11T07:01:20.631Z,99559.67
2019-05-11T07:03:49.338Z,99555.48
2019-05-11T07:06:17.972Z,99560.84
2019-05-11T07:08:46.644Z,99565.77
2019-05-11T07:11:15.289Z,99554.61
2019-05-11T07:13:43.910Z,99560.36
2019-05-11T07:16:12.641Z,99557.73
2019-05-11T07:18:41.419Z,99552.52
2019-05-11T07:21:10.038Z,99554.84
2019-05-11T07:23:38.924Z,99556.23
2019-05-11T07:26:07.770Z,99559.81
2019-05-11T07:28:36.486Z,99565.03
2019-05-11T07:31:05.234Z,99570.98
2019-05-11T07:33:33.836Z,99573.09
2019-05-11T07:36:02.450Z,99576.91
2019-05-11T07:38:31.136Z,99571.78
2019-05-11T07:40:59.839Z,99573.92
2019-05-11T07:43:28.848Z,99565.89
2019-05-11T07:45:58.485Z,99563.44
2019-05-11T07:48:27.893Z,99573.55
2019-05-11T07:50:58.462Z,99577.64
2019-05-11T07:53:27.977Z,99581.15
2019-05-11T07:55:57.705Z,99585.00
2019-05-11T07:58:28.543Z,99577.51
2019-05-11T08:00:58.163Z,99580.23
2019-05-11T08:03:28.344Z,99586.64
2019-05-11T08:05:58.238Z,99582.96
2019-05-11T08:08:28.388Z,99584.65
2019-05-11T08:10:58.651Z,99582.52
2019-05-11T08:13:28.215Z,99574.83
2019-05-11T08:15:57.870Z,99574.69
2019-05-11T08:18:28.243Z,99573.28
2019-05-11T08:20:58.302Z,99578.56
2019-05-11T08:23:28.490Z,99585.98
2019-05-11T08:25:58.087Z,99587.33
2019-05-11T08:28:28.761Z,99592.92
2019-05-11T08:30:58.031Z,99588.08
2019-05-11T08:33:28.370Z,99586.51
2019-05-11T08:35:58.251Z,99587.41
2019-05-11T08:38:28.537Z,99587.80
2019-05-11T08:40:59.060Z,99592.93
2019-05-11T08:43:28.474Z,99586.82
2019-05-11T08:45:57.915Z,99589.19
2019-05-11T08:48:28.357Z,99588.83
2019-05-11T08:50:58.180Z,99589.19
2019-05-11T08:53:28.427Z,99593.80
2019-05-11T08:55:58.820Z,99593.31
2019-05-11T08:58:27.946Z,99602.59
2019-05-11T09:00:58.281Z,99612.34
2019-05-11T09:03:28.440Z,99629.09
2019-05-11T09:05:58.062Z,99644.23
2019-05-11T09:08:28.281Z,99648.30
2019-05-11T09:10:58.231Z,99653.52
2019-05-11T09:13:27.968Z,99645.92
2019-05-11T09:15:58.860Z,99651.95
2019-05-11T09:18:28.002Z,99644.20
2019-05-11T09:20:57.728Z,99656.13
2019-05-11T09:23:36.300Z,99654.85
2019-05-11T09:25:58.439Z,99665.37
2019-05-11T09:28:29.519Z,99662.52
2019-05-11T09:30:57.932Z,99669.46
2019-05-11T09:33:28.308Z,99668.33
2019-05-11T09:35:58.357Z,99677.70
2019-05-11T09:38:27.819Z,99681.16
2019-05-11T09:40:58.552Z,99675.49
2019-05-11T09:43:28.397Z,99679.59
2019-05-11T09:45:58.269Z,99690.14
2019-05-11T09:48:28.399Z,99691.17
2019-05-11T09:50:58.790Z,99699.77
2019-05-11T09:53:28.421Z,99704.07
2019-05-11T09:55:58.681Z,99711.61
2019-05-11T09:58:28.120Z,99714.96
2019-05-11T10:00:58.584Z,99722.18
2019-05-11T10:03:28.127Z,99725.94
2019-05-11T10:05:58.016Z,99728.17
2019-05-11T10:08:28.657Z,99728.45
2019-05-11T10:10:58.057Z,99737.69
2019-05-11T10:13:27.832Z,99737.69
2019-05-11T10:16:04.579Z,99742.54
2019-05-11T10:18:28.158Z,99742.52
2019-05-11T10:20:58.675Z,99748.34
2019-05-11T10:23:27.982Z,99756.91
2019-05-11T10:25:58.583Z,99767.41
2019-05-11T10:28:28.460Z,99768.23
2019-05-11T10:30:57.897Z,99778.93
2019-05-11T10:33:28.105Z,99777.25
2019-05-11T10:35:58.779Z,99776.44
2019-05-11T10:38:28.561Z,99775.75
2019-05-11T10:40:58.182Z,99776.66
2019-05-11T10:43:28.831Z,99784.27
2019-05-11T10:45:58.827Z,99778.69
2019-05-11T10:48:28.233Z,99787.27
2019-05-11T10:50:57.630Z,99793.84
2019-05-11T10:53:27.819Z,99791.27
2019-05-11T10:55:58.181Z,99793.95
2019-05-11T10:58:28.547Z,99793.00
2019-05-11T11:00:58.227Z,99796.57
2019-05-11T11:03:28.402Z,99796.63
2019-05-11T11:05:58.055Z,99803.26
2019-05-11T11:08:27.854Z,99799.98
2019-05-11T11:10:58.558Z,99805.91
2019-05-11T11:13:28.144Z,99800.49
2019-05-11T11:15:58.158Z,99808.53
2019-05-11T11:18:28.764Z,99805.94
2019-05-11T11:20:58.138Z,99808.94
2019-05-11T11:23:28.469Z,99809.52
2019-05-11T11:25:58.565Z,99813.40
2019-05-11T11:28:28.021Z,99806.70
2019-05-11T11:30:58.421Z,99811.90
2019-05-11T11:33:27.728Z,99815.55
2019-05-11T11:35:57.963Z,99816.45
2019-05-11T11:38:28.525Z,99820.40
2019-05-11T11:40:58.702Z,99827.47
2019-05-11T11:43:28.738Z,99837.55
2019-05-11T11:45:58.057Z,99844.55
2019-05-11T11:48:27.990Z,99846.63
2019-05-11T11:50:58.519Z,99858.44
2019-05-11T11:53:27.925Z,99865.50
2019-05-11T11:55:58.636Z,99871.84
2019-05-11T11:58:27.735Z,99871.30
2019-05-11T12:00:58.722Z,99881.04
2019-05-11T12:03:27.698Z,99886.12
2019-05-11T12:05:58.144Z,99894.77
2019-05-11T12:08:28.224Z,99902.25
2019-05-11T12:10:58.862Z,99897.84
2019-05-11T12:13:29.614Z,99908.63
2019-05-11T12:15:58.459Z,99918.75
2019-05-11T12:18:28.644Z,99920.31
2019-05-11T12:20:58.609Z,99923.22
2019-05-11T12:23:28.486Z,99929.70
2019-05-11T12:25:57.996Z,99928.02
2019-05-11T12:28:27.631Z,99941.54
2019-05-11T12:30:58.444Z,99933.85
2019-05-11T12:33:27.939Z,99950.00
2019-05-11T12:35:58.698Z,99947.06
2019-05-11T12:38:27.730Z,99944.77
2019-05-11T12:40:57.978Z,99954.27
2019-05-11T12:43:27.711Z,99964.92
2019-05-11T12:45:58.569Z,99972.54
2019-05-11T12:48:28.471Z,99977.39
2019-05-11T12:50:58.778Z,99979.55
2019-05-11T12:53:28.059Z,99987.62
2019-05-11T12:55:58.842Z,99977.75
2019-05-11T12:58:28.074Z,99984.33
2019-05-11T13:00:58.471Z,99989.18
2019-05-11T13:03:27.862Z,99995.88
2019-05-11T13:05:58.585Z,99994.09
2019-05-11T13:08:27.764Z,99998.92
2019-05-11T13:10:58.442Z,100008.08
2019-05-11T13:13:28.608Z,100014.86
2019-05-11T13:15:58.485Z,100030.08
2019-05-11T13:18:28.035Z,100035.56
2019-05-11T13:20:58.824Z,100043.06
2019-05-11T13:23:27.767Z,100043.75
2019-05-11T13:25:58.510Z,100053.23
2019-05-11T13:28:28.389Z,100056.62
2019-05-11T13:30:58.040Z,100061.76
2019-05-11T13:33:27.997Z,100074.81
2019-05-11T13:35:57.860Z,100076.60
2019-05-11T13:38:28.287Z,100072.41
2019-05-11T13:40:59.102Z,100070.87
2019-05-11T13:43:28.134Z,100079.11
2019-05-11T13:45:58.410Z,100089.97
2019-05-11T13:48:28.113Z,100094.29
2019-05-11T13:50:58.242Z,100097.58
2019-05-11T13:53:27.601Z,100101.04
2019-05-11T13:55:58.527Z,100102.14
2019-05-11T13:58:27.780Z,100109.91
2019-05-11T14:00:58.538Z,100106.35
2019-05-11T14:03:27.789Z,100119.85
2019-05-11T14:05:58.191Z,100115.91
2019-05-11T14:08:33.624Z,100121.45
2019-05-11T14:11:08.581Z,100133.92
2019-05-11T14:13:41.540Z,100140.47
2019-05-11T14:16:11.359Z,100143.67
2019-05-11T14:18:41.448Z,100143.16
2019-05-11T14:21:10.308Z,100144.39
2019-05-11T14:23:39.937Z,100147.90
2019-05-11T14:26:13.544Z,100152.20
2019-05-11T14:28:42.591Z,100155.48
2019-05-11T14:31:13.302Z,100164.58
2019-05-11T14:33:42.392Z,100160.95
2019-05-11T14:36:18.041Z,100162.81
2019-05-11T14:38:48.677Z,100154.74
2019-05-11T14:41:18.931Z,100162.82
2019-05-11T14:43:53.170Z,100176.80
2019-05-11T14:46:23.965Z,100175.23
2019-05-11T14:48:58.532Z,100189.02
2019-05-11T14:51:28.401Z,100190.23
2019-05-11T14:53:59.503Z,100201.30
2019-05-11T14:56:31.005Z,100209.97
2019-05-11T14:59:02.206Z,100220.30
2019-05-11T15:01:32.865Z,100233.92
2019-05-11T15:04:08.790Z,100244.27
2019-05-11T15:06:40.282Z,100241.87
2019-05-11T15:09:12.671Z,100254.34
2019-05-11T15:11:41.516Z,100267.54
2019-05-11T15:14:13.242Z,100271.55
2019-05-11T15:16:42.853Z,100275.18
2019-05-11T15:19:14.086Z,100280.22
2019-05-11T15:21:47.481Z,100285.47
2019-05-11T15:24:18.600Z,100287.65
2019-05-11T15:26:51.653Z,100297.69
2019-05-11T15:29:22.313Z,100300.77
2019-05-11T15:32:22.163Z,100310.58
2019-05-11T15:34:50.786Z,100307.91
2019-05-11T15:37:19.410Z,100314.89
2019-05-11T15:39:48.434Z,100323.69
2019-05-11T15:42:19.783Z,100326.14
2019-05-11T15:44:48.420Z,100339.12
2019-05-11T15:47:17.142Z,100335.32
2019-05-11T15:49:48.050Z,100347.36
2019-05-11T15:52:18.620Z,100350.23
2019-05-11T15:54:46.568Z,100369.80
2019-05-11T15:57:17.803Z,100366.06
2019-05-11T15:59:48.006Z,100370.38
2019-05-11T16:02:17.844Z,100373.86
2019-05-11T16:04:49.126Z,100377.83
2019-05-11T16:07:18.653Z,100389.04
2019-05-11T16:09:48.675Z,100390.02
2019-05-11T16:12:18.171Z,100397.45
2019-05-11T16:14:48.567Z,100397.25
2019-05-11T16:17:17.372Z,100392.91
2019-05-11T16:19:46.015Z,100388.80
2019-05-11T16:22:17.828Z,100386.53
2019-05-11T16:24:44.962Z,100392.73
2019-05-11T16:27:13.665Z,100394.39
2019-05-11T16:29:42.280Z,100404.30
2019-05-11T16:32:10.885Z,100405.23
2019-05-11T16:34:39.507Z,100415.73
2019-05-11T16:37:10.207Z,100425.02
2019-05-11T16:39:38.631Z,100446.07
2019-05-11T16:42:08.535Z,100450.92
2019-05-11T16:44:37.889Z,100464.64
2019-05-11T16:47:07.879Z,100480.21
2019-05-11T16:49:38.427Z,100482.33
2019-05-11T16:52:07.748Z,100486.23
2019-05-11T16:54:38.747Z,100491.91
2019-05-11T16:57:08.627Z,100487.90
2019-05-11T16:59:39.628Z,100492.92
2019-05-11T17:02:08.328Z,100499.62
2019-05-11T17:04:39.659Z,100503.39
2019-05-11T17:07:07.602Z,100511.42
2019-05-11T17:09:37.866Z,100519.91
2019-05-11T17:12:08.600Z,100530.33
2019-05-11T17:14:39.861Z,100551.28
2019-05-11T17:17:08.515Z,100559.65
2019-05-11T17:19:45.419Z,100564.30
2019-05-11T17:22:08.317Z,100570.23
2019-05-11T17:24:37.909Z,100573.41
2019-05-11T17:27:08.840Z,100574.19
2019-05-11T17:29:38.137Z,100586.77
2019-05-11T17:32:08.614Z,100590.16
2019-05-11T17:34:38.129Z,100606.53
2019-05-11T17:37:08.850Z,100616.87
2019-05-11T17:39:38.597Z,100620.55
2019-05-11T17:42:09.009Z,100616.59
2019-05-11T17:44:37.955Z,100625.16
2019-05-11T17:47:08.405Z,100632.42
2019-05-11T17:49:38.334Z,100639.48
2019-05-11T17:52:08.109Z,100642.66
2019-05-11T17:54:38.359Z,100662.23
2019-05-11T17:57:07.339Z,100669.62
2019-05-11T17:59:38.490Z,100672.67
2019-05-11T18:02:06.650Z,100678.79
2019-05-11T18:04:35.332Z,100683.56
2019-05-11T18:07:04.090Z,100684.54
2019-05-11T18:09:32.688Z,100691.23
2019-05-11T18:12:01.307Z,100701.09
2019-05-11T18:14:29.909Z,100706.65
2019-05-11T18:16:59.082Z,100708.55
2019-05-11T18:19:29.427Z,100701.59
2019-05-11T18:21:58.194Z,100711.22
2019-05-11T18:24:28.729Z,100712.95
2019-05-11T18:26:59.434Z,100719.25
2019-05-11T18:29:31.344Z,100726.08
2019-05-11T18:32:10.580Z,100728.11
2019-05-11T18:34:39.888Z,100739.23
2019-05-11T18:37:08.835Z,100738.95
2019-05-11T18:39:38.413Z,100740.40
2019-05-11T18:42:08.335Z,100753.61
2019-05-11T18:44:37.965Z,100756.02
2019-05-11T18:47:08.818Z,100762.06
2019-05-11T18:49:39.711Z,100764.68
2019-05-11T18:52:13.332Z,100769.03
2019-05-11T18:54:43.038Z,100791.64
2019-05-11T18:57:18.721Z,100804.73
2019-05-11T18:59:48.442Z,100810.19
2019-05-11T19:02:21.547Z,100821.13
2019-05-11T19:04:54.201Z,100830.63
2019-05-11T19:07:33.791Z,100833.02
2019-05-11T19:10:03.716Z,100844.82
2019-05-11T19:12:38.123Z,100843.13
2019-05-11T19:15:07.823Z,100852.54
2019-05-11T19:17:41.712Z,100861.66
2019-05-11T19:20:14.613Z,100859.52
2019-05-11T19:22:46.070Z,100865.73
2019-05-11T19:25:20.500Z,100866.71
2019-05-11T19:27:51.589Z,100867.55
2019-05-11T19:30:24.484Z,100877.47
2019-05-11T19:32:58.985Z,100884.70
2019-05-11T19:35:30.048Z,100892.94
2019-05-11T19:38:00.120Z,100907.50
2019-05-11T19:40:30.642Z,100910.08
2019-05-11T19:43:05.280Z,100906.52
2019-05-11T19:45:34.981Z,100919.99
2019-05-11T19:48:16.360Z,100919.79
2019-05-11T19:51:03.658Z,100926.30
2019-05-11T19:53:22.017Z,100922.23
2019-05-11T19:55:53.702Z,100922.12
2019-05-11T19:58:24.499Z,100926.39
2019-05-11T20:00:57.968Z,100922.00
2019-05-11T20:03:28.572Z,100934.49
2019-05-11T20:05:59.782Z,100929.80
2019-05-11T20:08:42.390Z,100926.09
2019-05-11T20:11:14.529Z,100921.43
2019-05-11T20:13:43.729Z,100930.25
2019-05-11T20:16:18.591Z,100930.22
2019-05-11T20:18:48.023Z,100941.69
2019-05-11T20:21:22.674Z,100938.58
2019-05-11T20:23:52.753Z,100935.97
2019-05-11T20:26:50.529Z,100946.01
2019-05-11T20:29:20.203Z,100949.70
2019-05-11T20:31:54.018Z,100952.91
2019-05-11T20:34:29.976Z,100958.39
2019-05-11T20:37:02.492Z,100961.32
2019-05-11T20:39:34.882Z,100966.38
2019-05-11T20:42:05.774Z,100967.25
2019-05-11T20:44:39.027Z,100968.14
2019-05-11T20:47:18.039Z,100973.87
2019-05-11T20:49:48.265Z,100975.39
2019-05-11T20:52:21.928Z,100975.53
2019-05-11T20:54:53.835Z,100990.59
2019-05-11T20:57:30.317Z,100984.80
2019-05-11T21:00:02.650Z,100996.30
2019-05-11T21:02:32.721Z,100999.66
2019-05-11T21:05:04.781Z,101000.34
2019-05-11T21:07:34.227Z,100992.52
2019-05-11T21:10:08.653Z,101002.17
2019-05-11T21:12:40.405Z,100996.84
2019-05-11T21:15:11.754Z,100999.52
2019-05-11T21:17:45.230Z,101002.84
2019-05-11T21:20:17.911Z,101003.69
2019-05-11T21:22:48.633Z,101000.67
2019-05-11T21:25:21.731Z,101002.67
2019-05-11T21:27:53.495Z,101006.84
2019-05-11T21:30:22.971Z,101012.48
2019-05-11T21:35:48.996Z,101021.82
2019-05-11T21:38:19.762Z,101032.99
2019-05-11T21:40:52.629Z,101038.80
2019-05-11T21:43:27.618Z,101038.45
2019-05-11T21:46:02.035Z,101037.93
2019-05-11T21:48:33.584Z,101045.93
2019-05-11T21:51:04.678Z,101045.45
2019-05-11T21:53:34.035Z,101043.03
2019-05-11T21:56:03.955Z,101052.02
2019-05-11T21:58:37.631Z,101057.81
2019-05-11T22:01:20.530Z,101061.00
2019-05-11T22:03:51.362Z,101058.98
2019-05-11T22:06:21.327Z,101055.77
2019-05-11T22:08:53.117Z,101055.05
2019-05-11T22:11:28.458Z,101060.87
2019-05-11T22:14:11.987Z,101059.56
2019-05-11T22:16:41.983Z,101071.91
2019-05-11T22:19:17.950Z,101070.93
2019-05-11T22:22:02.603Z,101074.28
2019-05-11T22:24:33.360Z,101078.02
2019-05-11T22:27:03.717Z,101080.91
2019-05-11T22:29:37.867Z,101080.83
2019-05-11T22:32:09.272Z,101088.23
2019-05-11T22:34:39.233Z,101086.70
2019-05-11T22:37:09.985Z,101093.34
2019-05-11T22:39:41.123Z,101091.14
2019-05-11T22:42:11.878Z,101097.09
2019-05-11T22:44:44.619Z,101094.89
2019-05-11T22:47:17.816Z,101103.55
2019-05-11T22:49:52.822Z,101114.75
2019-05-11T22:52:33.852Z,101119.55
2019-05-11T22:55:00.256Z,101131.87
2019-05-11T22:57:29.739Z,101126.06
2019-05-11T22:59:58.725Z,101131.45
2019-05-11T23:02:32.790Z,101135.44
2019-05-11T23:05:02.136Z,101145.52
2019-05-11T23:07:35.145Z,101146.45
2019-05-11T23:10:08.592Z,101145.27
2019-05-11T23:12:40.457Z,101150.77
2019-05-11T23:15:31.399Z,101150.28
2019-05-11T23:18:00.375Z,101154.73
2019-05-11T23:20:33.958Z,101151.69
2019-05-11T23:23:08.760Z,101149.52
2019-05-11T23:25:50.255Z,101157.36
2019-05-11T23:28:22.531Z,101162.48
2019-05-11T23:30:58.408Z,101175.49
2019-05-11T23:33:29.500Z,101171.73
2019-05-11T23:36:02.776Z,101180.44
2019-05-11T23:38:34.263Z,101179.67
2019-05-11T23:41:08.285Z,101169.39
2019-05-11T23:43:40.377Z,101182.13
2019-05-11T23:46:11.031Z,101189.91
2019-05-11T23:48:48.679Z,101199.22
2019-05-11T23:51:21.787Z,101199.86
2019-05-11T23:53:54.031Z,101211.82
2019-05-11T23:56:28.351Z,101209.61
2019-05-11T23:59:01.186Z,101214.77
